Time;durP1;ratioP1;P1;durP2;ratioP2;P2;SDS_P1;SDS_P2;PMS_P1;PMS_P2;Temp;Humidity;BMP_temperature;BMP_pressure;BME280_temperature;BME280_humidity;BME280_pressure;Samples;Min_cycle;Max_cycle;Signal;HPM_P1;HPM_P2
2023/03/28 00:00:49;;;;;;;1.25;0.90;;;;;;;19.51;47.50;96874.88;10319073;28;20049;-76
2023/03/28 00:06:17;;;;;;;2.30;0.90;;;;;;;19.50;47.76;96881.41;10332604;28;20489;-76
2023/03/28 00:11:36;;;;;;;1.47;0.83;;;;;;;19.49;47.50;96884.44;10319275;28;20085;-76
2023/03/28 00:16:56;;;;;;;2.35;0.90;;;;;;;19.47;47.65;96890.16;10332157;28;20045;-76
2023/03/28 00:22:15;;;;;;;1.02;0.68;;;;;;;19.46;47.41;96895.88;10318583;28;20055;-76
2023/03/28 00:27:35;;;;;;;2.45;1.00;;;;;;;19.45;47.53;96895.09;10326422;28;20057;-76
2023/03/28 00:32:56;;;;;;;1.45;0.80;;;;;;;19.44;47.43;96900.78;10318323;28;20053;-76
2023/03/28 00:38:15;;;;;;;1.63;0.85;;;;;;;19.43;47.39;96894.59;10321207;28;20053;-76
2023/03/28 00:43:42;;;;;;;0.70;0.68;;;;;;;19.42;47.30;96894.91;10340526;28;20053;-76
2023/03/28 00:49:20;;;;;;;1.67;0.82;;;;;;;19.40;47.31;96887.13;10354351;28;20042;-76
2023/03/28 00:54:40;;;;;;;1.13;0.70;;;;;;;19.38;47.41;96883.16;10326171;28;20045;-76
2023/03/28 01:00:00;;;;;;;1.70;0.70;;;;;;;19.37;47.21;96893.19;10339442;28;20042;-76
2023/03/28 01:05:24;;;;;;;1.15;0.77;;;;;;;19.36;47.30;96886.97;10339797;28;20479;-76
2023/03/28 01:10:44;;;;;;;1.48;0.65;;;;;;;19.34;47.23;96885.72;10325517;28;20042;-76
2023/03/28 01:16:04;;;;;;;1.05;0.70;;;;;;;19.34;47.28;96881.09;10339043;28;20039;-76
2023/03/28 01:21:48;;;;;;;0.98;0.63;;;;;;;19.33;47.07;96886.84;10338609;28;20157;-79
2023/03/28 01:27:15;;;;;;;0.98;0.70;;;;;;;19.31;47.25;96883.66;10334087;28;20050;-76
2023/03/28 01:32:38;;;;;;;0.88;0.60;;;;;;;19.30;47.25;96887.47;10311126;28;20414;-77
2023/03/28 01:38:31;;;;;;;0.82;0.70;;;;;;;19.29;47.11;96878.59;10352772;28;20038;-77
2023/03/28 01:44:01;;;;;;;1.00;0.65;;;;;;;19.29;47.17;96891.31;10352505;28;20050;-77
2023/03/28 01:49:31;;;;;;;0.77;0.70;;;;;;;19.28;47.15;96884.31;10323713;28;20039;-77
2023/03/28 01:55:00;;;;;;;1.40;0.65;;;;;;;19.27;47.14;96890.84;10337512;28;20050;-77
2023/03/28 02:00:31;;;;;;;0.93;0.50;;;;;;;19.25;47.09;96882.22;10323399;28;20050;-76
2023/03/28 02:06:01;;;;;;;0.80;0.55;;;;;;;19.23;47.09;96877.16;10338545;28;20058;-76
2023/03/28 02:11:23;;;;;;;1.08;0.60;;;;;;;19.22;47.05;96877.47;10323105;28;20042;-77
2023/03/28 02:17:03;;;;;;;1.10;0.60;;;;;;;19.21;47.08;96870.47;10325294;28;20046;-76
2023/03/28 02:22:35;;;;;;;0.88;0.60;;;;;;;19.21;46.89;96865.06;10337283;28;20046;-76
2023/03/28 02:28:31;;;;;;;0.88;0.50;;;;;;;19.18;46.94;96871.91;10256945;28;20046;-76
2023/03/28 02:34:03;;;;;;;0.88;0.52;;;;;;;19.19;47.09;96859.19;10298796;28;20046;-76
2023/03/28 02:39:41;;;;;;;0.80;0.50;;;;;;;19.16;46.92;96863.34;10335811;28;20042;-76
2023/03/28 02:45:19;;;;;;;1.10;0.55;;;;;;;19.15;46.89;96865.25;10335657;28;20042;-76
2023/03/28 02:51:10;;;;;;;1.07;0.60;;;;;;;19.13;46.85;96862.09;10350086;28;20042;-76
2023/03/28 02:56:42;;;;;;;0.50;0.50;;;;;;;19.13;46.90;96874.78;10321565;28;20301;-76
2023/03/28 03:02:03;;;;;;;0.60;0.45;;;;;;;19.12;46.92;96892.88;10321116;28;20042;-76
2023/03/28 03:07:23;;;;;;;0.60;0.50;;;;;;;19.11;46.88;96893.19;10321180;28;20045;-76
2023/03/28 03:12:44;;;;;;;0.63;0.60;;;;;;;19.09;46.74;96885.44;10321365;28;20045;-76
2023/03/28 03:18:04;;;;;;;0.68;0.50;;;;;;;19.08;46.86;96894.63;10334491;28;20042;-76
2023/03/28 03:23:25;;;;;;;0.60;0.50;;;;;;;19.07;46.89;96889.56;10320950;28;20041;-76
2023/03/28 03:28:48;;;;;;;0.47;0.47;;;;;;;19.05;47.04;96887.19;10324974;28;20089;-76
2023/03/28 03:34:09;;;;;;;0.52;0.50;;;;;;;19.06;46.95;96890.69;10320274;28;20045;-76
2023/03/28 03:39:35;;;;;;;0.95;0.60;;;;;;;19.04;46.78;96895.59;10320806;28;20046;-76
2023/03/28 03:44:55;;;;;;;0.40;0.40;;;;;;;19.03;46.70;96878.59;10333881;28;20479;-76
2023/03/28 03:50:16;;;;;;;0.40;0.40;;;;;;;19.02;46.91;96887.03;10319731;28;20049;-76
2023/03/28 03:55:40;;;;;;;0.38;0.38;;;;;;;19.00;46.76;96886.56;10319356;28;20049;-76
2023/03/28 04:01:00;;;;;;;0.75;0.60;;;;;;;19.00;46.81;96895.44;10319149;28;20046;-76
2023/03/28 04:06:28;;;;;;;0.50;0.40;;;;;;;18.99;46.82;96888.44;10320046;28;20057;-76
2023/03/28 04:11:48;;;;;;;0.52;0.50;;;;;;;18.97;46.83;96893.38;10318383;28;20494;-76
2023/03/28 04:17:12;;;;;;;0.50;0.50;;;;;;;18.96;46.87;96911.47;10318911;28;20043;-76
2023/03/28 04:22:34;;;;;;;0.55;0.50;;;;;;;18.95;46.91;96912.59;10332271;28;20050;-76
2023/03/28 04:27:55;;;;;;;0.50;0.50;;;;;;;18.94;46.73;96913.69;10312074;28;20061;-76
2023/03/28 04:33:17;;;;;;;0.45;0.45;;;;;;;18.93;46.71;96920.22;10318725;28;20038;-76
2023/03/28 04:38:40;;;;;;;1.42;0.40;;;;;;;18.93;46.89;96927.50;10318239;28;20057;-77
2023/03/28 04:44:16;;;;;;;0.40;0.40;;;;;;;18.93;46.96;96935.59;10307176;28;20042;-77
2023/03/28 04:49:41;;;;;;;0.40;0.40;;;;;;;18.94;47.29;96950.72;10318512;28;20043;-77
2023/03/28 04:55:01;;;;;;;1.88;0.50;;;;;;;18.95;47.24;96963.06;10318006;28;20105;-76
2023/03/28 05:00:21;;;;;;;0.47;0.40;;;;;;;18.96;47.67;96959.28;10318207;28;20050;-76
2023/03/28 05:05:55;;;;;;;0.65;0.50;;;;;;;18.96;47.67;96970.09;10333561;28;20050;-75
2023/03/28 05:11:16;;;;;;;0.40;0.40;;;;;;;18.98;47.45;96967.06;10331151;28;20104;-76
2023/03/28 05:16:35;;;;;;;1.48;0.40;;;;;;;18.98;47.42;96973.25;10331154;28;20435;-76
2023/03/28 05:22:21;;;;;;;0.60;0.40;;;;;;;19.00;47.91;96972.94;10334661;28;20407;-76
2023/03/28 05:27:41;;;;;;;1.35;0.50;;;;;;;19.01;48.05;96969.91;10316255;28;20058;-76
2023/03/28 05:33:01;;;;;;;0.73;0.32;;;;;;;19.04;48.42;96971.22;10338408;28;20050;-76
2023/03/28 05:38:22;;;;;;;1.83;0.40;;;;;;;19.05;48.37;96970.91;10324870;28;20046;-74
2023/03/28 05:43:47;;;;;;;0.57;0.52;;;;;;;19.07;47.94;96982.16;10311752;28;20118;-76
2023/03/28 05:49:16;;;;;;;1.48;0.43;;;;;;;19.09;47.65;97012.34;10325030;28;20472;-76
2023/03/28 05:54:36;;;;;;;1.02;0.47;;;;;;;19.11;47.49;97015.53;10310593;28;20451;-76
2023/03/28 05:59:56;;;;;;;3.95;1.02;;;;;;;19.13;47.28;97034.09;10323783;28;20050;-76
2023/03/28 06:05:17;;;;;;;6.43;1.50;;;;;;;19.15;47.35;97051.59;10323744;28;20043;-76
2023/03/28 06:10:37;;;;;;;3.17;1.10;;;;;;;19.19;47.25;97059.06;10323141;28;20046;-76
2023/03/28 06:16:20;;;;;;;6.32;1.23;;;;;;;19.21;47.02;97073.03;10315596;28;20058;-76
2023/03/28 06:21:40;;;;;;;3.25;1.40;;;;;;;19.24;47.23;97083.22;10337048;28;20042;-76
2023/03/28 06:27:00;;;;;;;7.32;1.40;;;;;;;19.28;47.12;97089.59;10318363;28;20557;-76
2023/03/28 06:32:20;;;;;;;4.57;1.35;;;;;;;19.30;47.08;97098.94;10350756;28;20050;-76
2023/03/28 06:37:40;;;;;;;3.70;1.50;;;;;;;19.34;47.00;97093.72;10308176;28;20053;-76
2023/03/28 06:43:00;;;;;;;5.13;1.40;;;;;;;19.38;47.07;97115.50;10308799;28;20050;-76
2023/03/28 06:48:33;;;;;;;3.53;1.40;;;;;;;19.42;46.78;97111.06;10323674;28;20458;-76
2023/03/28 06:54:15;;;;;;;3.72;1.20;;;;;;;19.45;47.01;97127.44;10325104;28;20070;-76
2023/03/28 06:59:35;;;;;;;3.90;1.20;;;;;;;19.49;46.77;97130.31;10321267;28;20482;-76
2023/03/28 07:04:58;;;;;;;2.33;0.98;;;;;;;19.51;46.40;97147.78;10308549;28;20053;-76
2023/03/28 07:10:18;;;;;;;4.70;1.30;;;;;;;19.55;46.31;97162.25;10349111;28;20073;-76
2023/03/28 07:15:38;;;;;;;3.92;1.10;;;;;;;19.60;46.43;97165.91;10334487;28;20439;-76
2023/03/28 07:20:57;;;;;;;2.53;1.20;;;;;;;19.63;46.49;97162.59;10320148;28;20100;-76
2023/03/28 07:26:17;;;;;;;3.35;1.00;;;;;;;19.67;46.40;97174.38;10346794;28;20042;-76
2023/03/28 07:31:38;;;;;;;4.30;1.15;;;;;;;19.71;46.43;97188.84;10320538;28;20055;-76
2023/03/28 07:36:57;;;;;;;3.20;1.02;;;;;;;19.74;46.24;97199.06;10320038;28;20043;-76
2023/03/28 07:42:35;;;;;;;1.63;1.08;;;;;;;19.78;46.27;97204.63;10322107;28;20046;-76
2023/03/28 07:47:55;;;;;;;2.20;1.10;;;;;;;19.82;46.16;97214.50;10333160;28;20050;-76
2023/03/28 07:53:15;;;;;;;2.42;1.00;;;;;;;19.85;46.16;97216.56;10320028;28;20092;-76
2023/03/28 07:58:35;;;;;;;1.95;1.10;;;;;;;19.90;46.34;97224.53;10319279;28;20050;-76
2023/03/28 08:04:02;;;;;;;1.63;0.90;;;;;;;19.93;46.24;97226.63;10319953;28;20101;-76
2023/03/28 08:09:37;;;;;;;1.67;0.90;;;;;;;19.98;46.17;97236.47;10321079;28;20042;-76
2023/03/28 08:15:08;;;;;;;1.45;0.80;;;;;;;20.02;46.09;97239.34;10307070;28;20053;-76
2023/03/28 08:20:27;;;;;;;3.08;0.90;;;;;;;20.05;46.18;97228.69;10332065;28;20515;-76
2023/03/28 08:26:06;;;;;;;1.60;0.90;;;;;;;20.11;46.16;97240.13;10318818;28;20109;-76
2023/03/28 08:31:27;;;;;;;1.85;0.93;;;;;;;20.14;45.99;97245.72;10318734;28;20053;-76
2023/03/28 08:36:50;;;;;;;3.25;1.27;;;;;;;20.17;46.17;97238.06;10305847;28;20049;-76
2023/03/28 08:42:40;;;;;;;7.57;1.67;;;;;;;20.22;47.05;97240.63;10319999;28;20046;-75
2023/03/28 08:48:10;;;;;;;3.67;1.33;;;;;;;20.26;47.50;97253.19;10331893;28;20046;-76
2023/03/28 08:53:36;;;;;;;3.63;1.88;;;;;;;20.30;48.36;97262.25;10331639;28;20049;-76
2023/03/28 08:59:05;;;;;;;5.95;3.17;;;;;;;20.33;49.31;97274.38;10334039;28;20042;-76
2023/03/28 09:04:33;;;;;;;4.28;2.50;;;;;;;20.35;49.85;97262.13;10354325;28;20042;-76
2023/03/28 09:10:10;;;;;;;3.38;1.85;;;;;;;20.39;49.51;97272.31;10339073;28;20407;-76
2023/03/28 09:15:44;;;;;;;3.42;1.60;;;;;;;20.41;49.53;97280.91;10339148;28;20042;-76
2023/03/28 09:21:20;;;;;;;3.05;1.40;;;;;;;20.41;49.43;97267.38;10325534;28;20046;-76
2023/03/28 09:26:48;;;;;;;3.38;1.50;;;;;;;20.41;49.08;97270.09;10325194;28;20057;-76
2023/03/28 09:32:19;;;;;;;2.88;1.10;;;;;;;20.42;48.63;97288.69;10311829;28;20050;-76
2023/03/28 09:37:53;;;;;;;3.50;1.15;;;;;;;20.44;48.57;97291.09;10311230;28;20533;-76
2023/03/28 09:43:22;;;;;;;2.15;1.17;;;;;;;20.45;48.26;97311.66;10324772;28;20491;-76
2023/03/28 09:49:23;;;;;;;1.70;0.90;;;;;;;20.45;48.25;97323.25;10253463;28;20054;-77
2023/03/28 09:54:47;;;;;;;1.63;0.90;;;;;;;20.47;48.15;97320.25;10324596;28;20045;-76
2023/03/28 10:00:19;;;;;;;2.55;0.90;;;;;;;20.47;47.90;97320.25;10337578;28;20069;-76
2023/03/28 10:05:46;;;;;;;1.70;0.77;;;;;;;20.47;48.13;97339.19;10311462;28;20495;-76
2023/03/28 10:11:16;;;;;;;1.77;0.80;;;;;;;20.47;47.88;97321.03;10322616;28;20042;-76
2023/03/28 10:16:36;;;;;;;1.50;0.82;;;;;;;20.48;47.65;97321.81;10323300;28;20050;-76
2023/03/28 10:22:26;;;;;;;3.08;0.80;;;;;;;20.47;47.86;97323.72;10351106;28;20046;-76
2023/03/28 10:27:47;;;;;;;1.95;0.80;;;;;;;20.48;47.65;97341.59;10316787;28;20061;-76
2023/03/28 10:33:16;;;;;;;1.10;0.73;;;;;;;20.49;47.48;97331.53;10336223;28;20069;-77
2023/03/28 10:39:20;;;;;;;1.77;0.73;;;;;;;20.49;47.21;97353.19;10335974;28;20054;-77
2023/03/28 10:45:20;;;;;;;1.08;0.68;;;;;;;20.49;47.66;97345.06;10340623;28;20475;-76
2023/03/28 10:50:51;;;;;;;1.92;0.90;;;;;;;20.49;47.35;97358.59;10335413;28;20050;-76
2023/03/28 10:56:32;;;;;;;1.20;0.63;;;;;;;20.48;46.74;97375.94;10308407;28;20038;-76
2023/03/28 11:02:18;;;;;;;1.45;0.80;;;;;;;20.48;46.97;97368.66;10322147;28;20050;-76
2023/03/28 11:07:53;;;;;;;0.98;0.50;;;;;;;20.48;46.74;97365.13;10350080;28;20046;-76
2023/03/28 11:13:31;;;;;;;2.15;0.70;;;;;;;20.47;46.95;97360.84;10349241;28;20050;-76
2023/03/28 11:19:07;;;;;;;2.08;0.70;;;;;;;20.48;47.04;97365.13;10334409;28;20061;-76
2023/03/28 11:24:57;;;;;;;1.65;0.70;;;;;;;20.48;47.01;97362.41;10320944;28;20042;-76
2023/03/28 11:30:37;;;;;;;0.60;0.60;;;;;;;20.48;47.34;97367.81;10348671;28;20038;-76
2023/03/28 11:36:18;;;;;;;0.50;0.50;;;;;;;20.47;46.47;97358.13;10322351;28;20410;-76
2023/03/28 11:41:39;;;;;;;1.00;0.60;;;;;;;20.44;46.52;97374.97;10320125;28;20384;-76
2023/03/28 11:47:25;;;;;;;0.65;0.60;;;;;;;20.44;46.40;97359.53;10323108;28;20067;-76
2023/03/28 11:53:15;;;;;;;1.40;0.70;;;;;;;20.44;46.30;97361.44;10333013;28;20050;-76
2023/03/28 11:58:46;;;;;;;0.90;0.50;;;;;;;20.44;46.39;97350.63;10320803;28;20046;-76
2023/03/28 12:04:12;;;;;;;0.80;0.45;;;;;;;20.43;46.24;97357.16;10332817;28;20042;-76
2023/03/28 12:09:54;;;;;;;0.57;0.50;;;;;;;20.42;46.24;97359.06;10332546;28;20047;-76
2023/03/28 12:15:17;;;;;;;0.60;0.60;;;;;;;20.42;46.48;97342.81;10319098;28;20042;-76
2023/03/28 12:21:12;;;;;;;0.60;0.43;;;;;;;20.42;45.93;97347.44;10319376;28;20053;-76
2023/03/28 12:26:55;;;;;;;0.88;0.50;;;;;;;20.42;46.37;97364.47;10316271;28;20104;-76
2023/03/28 12:32:41;;;;;;;2.75;0.52;;;;;;;20.42;46.52;97352.84;10331596;28;20045;-76
2023/03/28 12:38:13;;;;;;;0.70;0.52;;;;;;;20.41;46.50;97348.56;10332008;28;20049;-76
2023/03/28 12:43:48;;;;;;;0.50;0.45;;;;;;;20.42;46.30;97355.56;10331730;28;20089;-76
2023/03/28 12:49:22;;;;;;;0.55;0.40;;;;;;;20.41;46.53;97345.88;10318659;28;20053;-76
2023/03/28 12:55:00;;;;;;;0.73;0.63;;;;;;;20.40;46.52;97355.09;10318336;28;20049;-76
2023/03/28 13:00:49;;;;;;;0.68;0.50;;;;;;;20.38;46.48;97377.03;10318765;28;20053;-76
2023/03/28 13:06:31;;;;;;;0.50;0.40;;;;;;;20.38;46.53;97373.53;10346355;28;20043;-76
2023/03/28 13:12:05;;;;;;;1.90;0.50;;;;;;;20.37;46.67;97361.94;10331585;28;20046;-76
2023/03/28 13:17:26;;;;;;;0.70;0.43;;;;;;;20.37;46.58;97366.56;10317768;28;20046;-76
2023/03/28 13:22:56;;;;;;;0.50;0.50;;;;;;;20.36;46.29;97371.16;10345740;28;20120;-76
2023/03/28 13:28:16;;;;;;;0.47;0.40;;;;;;;20.35;46.25;97364.94;10310683;28;20051;-75
2023/03/28 13:33:44;;;;;;;1.02;0.40;;;;;;;20.33;46.26;97361.75;10345420;28;20039;-75
2023/03/28 13:39:04;;;;;;;0.43;0.43;;;;;;;20.33;46.17;97360.97;10342872;28;20042;-76
2023/03/28 13:44:30;;;;;;;0.60;0.50;;;;;;;20.33;46.27;97366.38;10367508;28;20406;-76
2023/03/28 13:49:58;;;;;;;0.65;0.50;;;;;;;20.32;46.18;97370.19;10327107;28;20431;-76
2023/03/28 13:55:23;;;;;;;0.70;0.50;;;;;;;20.31;46.70;97366.69;10362981;28;20049;-75
2023/03/28 14:00:43;;;;;;;1.15;0.55;;;;;;;20.31;46.51;97369.41;10378285;28;20050;-75
2023/03/28 14:06:11;;;;;;;24.85;19.40;;;;;;;20.32;46.89;97372.88;10354746;28;20045;-75
2023/03/28 14:11:35;;;;;;;16.20;10.82;;;;;;;20.31;47.09;97380.22;10360377;28;20037;-75
2023/03/28 14:16:55;;;;;;;10.95;8.02;;;;;;;20.29;45.29;97370.84;10325744;28;20399;-75
2023/03/28 14:22:17;;;;;;;10.60;7.68;;;;;;;20.29;46.05;97371.63;10336750;28;20042;-75
2023/03/28 14:27:42;;;;;;;9.15;7.53;;;;;;;20.28;45.83;97375.44;10322977;28;20457;-74
2023/03/28 14:33:23;;;;;;;10.20;7.30;;;;;;;20.28;46.14;97380.03;10322549;28;20042;-75
2023/03/28 14:38:42;;;;;;;8.88;6.70;;;;;;;20.27;46.21;97383.88;10336095;28;20042;-75
2023/03/28 14:44:04;;;;;;;9.32;6.57;;;;;;;20.26;46.41;97380.34;10335767;28;20054;-75
2023/03/28 14:49:26;;;;;;;7.60;6.15;;;;;;;20.25;46.42;97383.41;10321909;28;20049;-75
2023/03/28 14:54:46;;;;;;;7.70;5.90;;;;;;;20.24;46.37;97379.88;10321989;28;20065;-75
2023/03/28 15:00:11;;;;;;;7.80;5.72;;;;;;;20.23;46.41;97370.19;10348736;28;20046;-75
2023/03/28 15:05:31;;;;;;;7.65;5.45;;;;;;;20.25;46.38;97380.69;10321944;28;20510;-75
2023/03/28 15:10:53;;;;;;;6.38;5.13;;;;;;;20.24;46.64;97381.78;10321418;28;20100;-75
2023/03/28 15:16:19;;;;;;;5.45;4.88;;;;;;;20.24;46.69;97376.38;10337123;28;20038;-75
2023/03/28 15:21:40;;;;;;;7.10;4.88;;;;;;;20.24;46.73;97387.19;10361041;28;20057;-75
2023/03/28 15:27:02;;;;;;;6.10;4.70;;;;;;;20.23;46.87;97382.88;10357040;28;20418;-75
2023/03/28 15:32:22;;;;;;;5.68;4.50;;;;;;;20.23;46.83;97396.41;10374897;28;20041;-75
2023/03/28 15:37:43;;;;;;;6.85;4.72;;;;;;;20.21;46.67;97385.94;10374927;28;20042;-75
2023/03/28 15:43:05;;;;;;;7.63;4.55;;;;;;;20.22;46.82;97392.91;10361963;28;20049;-71
2023/03/28 15:48:25;;;;;;;6.13;4.50;;;;;;;20.21;46.82;97391.34;10373892;28;20042;-72
2023/03/28 15:53:46;;;;;;;6.25;4.18;;;;;;;20.20;46.72;97408.66;10373803;28;20046;-72
2023/03/28 15:59:13;;;;;;;4.45;3.67;;;;;;;20.20;46.94;97411.38;10374017;28;20509;-72
2023/03/28 16:04:32;;;;;;;4.30;3.78;;;;;;;20.19;46.92;97420.63;10368407;28;20049;-72
2023/03/28 16:09:52;;;;;;;5.28;3.83;;;;;;;20.19;46.94;97419.78;10352582;28;20049;-72
2023/03/28 16:15:12;;;;;;;5.07;3.65;;;;;;;20.18;47.01;97418.22;10339728;28;20049;-72
2023/03/28 16:20:38;;;;;;;4.63;3.90;;;;;;;20.16;46.99;97426.63;10359870;28;20065;-72
2023/03/28 16:25:58;;;;;;;4.78;3.58;;;;;;;20.15;46.83;97439.38;10367057;28;20109;-71
2023/03/28 16:31:17;;;;;;;4.22;3.80;;;;;;;20.15;46.83;97442.09;10348997;28;20450;-72
2023/03/28 16:36:37;;;;;;;4.03;3.35;;;;;;;20.14;46.94;97445.09;10346428;28;20425;-72
2023/03/28 16:41:57;;;;;;;4.32;3.50;;;;;;;20.12;47.10;97442.69;10328555;28;20038;-72
2023/03/28 16:47:17;;;;;;;5.05;3.50;;;;;;;20.11;47.40;97445.69;10345416;28;20046;-72
2023/03/28 16:52:40;;;;;;;4.82;3.40;;;;;;;20.11;47.16;97456.53;10350067;28;20049;-72
2023/03/28 16:58:00;;;;;;;3.72;3.13;;;;;;;20.10;47.09;97455.72;10332251;28;20038;-72
2023/03/28 17:03:30;;;;;;;4.88;3.55;;;;;;;20.09;47.03;97461.44;10306195;28;20407;-72
2023/03/28 17:08:52;;;;;;;4.45;3.65;;;;;;;20.07;46.96;97466.38;10317687;28;20042;-72
2023/03/28 17:14:11;;;;;;;3.65;3.10;;;;;;;20.07;46.90;97466.38;10317936;28;20045;-72
2023/03/28 17:19:31;;;;;;;3.92;3.38;;;;;;;20.05;46.95;97468.59;10332985;28;20046;-72
2023/03/28 17:24:54;;;;;;;4.13;3.25;;;;;;;20.04;46.92;97456.97;10338025;28;20054;-72
2023/03/28 17:30:14;;;;;;;3.38;3.05;;;;;;;20.04;46.91;97459.69;10326154;28;20066;-72
2023/03/28 17:35:34;;;;;;;3.17;2.75;;;;;;;20.03;47.10;97463.50;10324884;28;20046;-72
2023/03/28 17:40:54;;;;;;;3.53;3.00;;;;;;;20.02;47.06;97461.91;10353816;28;20058;-75
2023/03/28 17:46:13;;;;;;;3.42;3.13;;;;;;;20.01;46.93;97464.91;10339233;28;20046;-75
2023/03/28 17:51:33;;;;;;;55.33;35.20;;;;;;;20.01;47.44;97473.03;10324435;28;20042;-75
2023/03/28 17:56:53;;;;;;;45.33;30.30;;;;;;;19.99;47.53;97470.63;10352545;28;20046;-75
2023/03/28 18:02:13;;;;;;;36.35;26.02;;;;;;;19.99;47.53;97476.03;10337697;28;20108;-76
2023/03/28 18:07:33;;;;;;;30.52;23.10;;;;;;;19.98;47.46;97479.88;10310567;28;20441;-76
2023/03/28 18:12:56;;;;;;;32.47;20.77;;;;;;;19.97;47.45;97477.47;10337143;28;20042;-76
2023/03/28 18:18:17;;;;;;;30.20;20.00;;;;;;;19.95;47.21;97472.34;10323276;28;20046;-75
2023/03/28 18:23:36;;;;;;;27.75;18.02;;;;;;;19.94;47.07;97471.56;10351361;28;20093;-75
2023/03/28 18:28:56;;;;;;;26.83;17.60;;;;;;;19.92;47.05;97465.69;10287033;28;20114;-75
2023/03/28 18:34:15;;;;;;;21.17;15.65;;;;;;;19.92;47.09;97471.09;10308625;28;20046;-75
2023/03/28 18:39:35;;;;;;;23.35;15.65;;;;;;;19.91;46.92;97474.88;10309404;28;20046;-75
2023/03/28 18:44:55;;;;;;;24.92;16.02;;;;;;;19.90;47.31;97480.63;10295867;28;20043;-75
2023/03/28 18:50:14;;;;;;;19.23;14.23;;;;;;;19.87;46.58;97476.59;10295595;28;20050;-75
2023/03/28 18:55:34;;;;;;;18.50;13.57;;;;;;;19.88;46.57;97469.31;10295504;28;20035;-75
2023/03/28 19:00:59;;;;;;;17.70;13.35;;;;;;;19.85;46.49;97465.31;10310008;28;20125;-75
2023/03/28 19:06:18;;;;;;;17.02;13.20;;;;;;;19.85;46.59;97473.41;10295785;28;20043;-76
2023/03/28 19:11:38;;;;;;;16.02;12.15;;;;;;;19.83;46.24;97472.94;10308220;28;20047;-75
2023/03/28 19:16:58;;;;;;;16.42;12.50;;;;;;;19.83;46.41;97469.44;10294974;28;20042;-75
2023/03/28 19:22:17;;;;;;;19.08;12.52;;;;;;;19.82;46.54;97478.66;10307691;28;20051;-74
2023/03/28 19:27:37;;;;;;;16.25;11.98;;;;;;;19.80;46.49;97470.03;10318527;28;20526;-74
2023/03/28 19:32:57;;;;;;;16.65;11.52;;;;;;;19.80;46.47;97473.56;10334005;28;20047;-75
2023/03/28 19:38:16;;;;;;;16.17;11.75;;;;;;;19.79;46.54;97471.16;10319924;28;20049;-75
2023/03/28 19:43:36;;;;;;;14.52;11.02;;;;;;;19.77;46.45;97466.06;10333438;28;20049;-75
2023/03/28 19:48:56;;;;;;;16.30;10.50;;;;;;;19.77;46.65;97467.97;10319912;28;20440;-75
2023/03/28 19:54:16;;;;;;;14.32;10.55;;;;;;;19.75;46.26;97468.28;10333078;28;20042;-75
2023/03/28 19:59:35;;;;;;;15.05;10.48;;;;;;;19.76;46.59;97475.28;10333033;28;20053;-76
2023/03/28 20:04:55;;;;;;;13.60;10.43;;;;;;;19.74;46.70;97474.81;10332932;28;20050;-75
2023/03/28 20:10:15;;;;;;;15.07;10.32;;;;;;;19.71;46.56;97476.19;10332729;28;20039;-74
2023/03/28 20:15:40;;;;;;;14.68;10.10;;;;;;;19.70;46.62;97480.00;10347236;28;20050;-75
2023/03/28 20:21:01;;;;;;;14.68;10.00;;;;;;;19.69;46.76;97467.56;10347054;28;20101;-75
2023/03/28 20:26:25;;;;;;;12.75;9.35;;;;;;;19.69;46.72;97477.59;10329962;28;20057;-74
2023/03/28 20:31:45;;;;;;;11.18;9.02;;;;;;;19.67;46.67;97475.19;10332558;28;20050;-74
2023/03/28 20:37:05;;;;;;;13.48;9.57;;;;;;;19.67;46.57;97469.00;10332117;28;20038;-74
2023/03/28 20:42:28;;;;;;;11.45;8.57;;;;;;;19.66;47.05;97470.09;10347021;28;20433;-75
2023/03/28 20:47:55;;;;;;;12.90;9.10;;;;;;;19.64;46.73;97466.91;10332833;28;20053;-75
2023/03/28 20:53:15;;;;;;;11.20;8.52;;;;;;;19.65;46.68;97468.50;10333776;28;20049;-75
2023/03/28 20:58:37;;;;;;;10.38;8.75;;;;;;;19.62;46.57;97461.00;10341127;28;20038;-75
2023/03/28 21:04:01;;;;;;;9.18;7.93;;;;;;;19.61;46.58;97449.41;10354410;28;20046;-75
2023/03/28 21:09:20;;;;;;;11.50;8.07;;;;;;;19.62;46.72;97442.09;10354081;28;20042;-75
2023/03/28 21:14:40;;;;;;;10.88;7.97;;;;;;;19.59;46.71;97435.41;10339680;28;20053;-75
2023/03/28 21:20:00;;;;;;;11.25;8.38;;;;;;;19.59;46.63;97440.00;10339203;28;20077;-75
2023/03/28 21:25:19;;;;;;;10.40;7.40;;;;;;;19.56;46.55;97423.31;10325942;28;20415;-75
2023/03/28 21:30:39;;;;;;;9.63;7.78;;;;;;;19.56;46.56;97425.19;10353707;28;20057;-75
2023/03/28 21:35:58;;;;;;;12.23;7.70;;;;;;;19.54;46.51;97425.53;10338895;28;20049;-75
2023/03/28 21:41:18;;;;;;;10.20;7.68;;;;;;;19.54;46.51;97425.53;10338515;28;20046;-75
2023/03/28 21:46:38;;;;;;;10.18;7.10;;;;;;;19.53;46.56;97405.00;10338293;28;20042;-75
2023/03/28 21:51:57;;;;;;;10.00;7.38;;;;;;;19.52;46.52;97408.00;10338316;28;20073;-74
2023/03/28 21:57:17;;;;;;;9.20;7.05;;;;;;;19.51;46.46;97406.41;10337730;28;20042;-75
2023/03/28 22:02:36;;;;;;;9.50;7.00;;;;;;;19.50;46.30;97404.81;10346218;28;20038;-75
2023/03/28 22:07:56;;;;;;;9.25;6.75;;;;;;;19.47;46.21;97395.44;10356440;28;20483;-75
2023/03/28 22:13:16;;;;;;;7.68;6.20;;;;;;;19.46;46.31;97401.91;10365382;28;20512;-75
2023/03/28 22:18:35;;;;;;;8.07;6.45;;;;;;;19.45;46.39;97403.03;10363836;28;20053;-75
2023/03/28 22:23:56;;;;;;;8.60;6.57;;;;;;;19.44;46.31;97400.66;10363665;28;20049;-75
2023/03/28 22:29:16;;;;;;;7.82;6.50;;;;;;;19.44;46.06;97387.94;10340224;28;20073;-75
2023/03/28 22:34:36;;;;;;;7.50;6.03;;;;;;;19.41;45.96;97375.03;10336988;28;20101;-75
2023/03/28 22:39:56;;;;;;;8.00;6.53;;;;;;;19.39;46.02;97369.16;10349843;28;20063;-75
2023/03/28 22:45:15;;;;;;;7.47;6.40;;;;;;;19.40;46.04;97378.06;10336356;28;20096;-75
2023/03/28 22:50:36;;;;;;;7.50;5.93;;;;;;;19.37;45.92;97365.97;10335657;28;20495;-75
2023/03/28 22:55:56;;;;;;;7.47;6.00;;;;;;;19.36;45.81;97365.16;10322354;28;20450;-75
2023/03/28 23:01:16;;;;;;;8.13;5.97;;;;;;;19.35;45.88;97365.47;10348971;28;20059;-75
2023/03/28 23:06:37;;;;;;;7.88;5.93;;;;;;;19.34;45.82;97353.84;10334972;28;20049;-75
2023/03/28 23:11:57;;;;;;;7.00;5.80;;;;;;;19.32;45.70;97350.66;10348482;28;20051;-75
2023/03/28 23:17:17;;;;;;;6.72;5.93;;;;;;;19.31;45.61;97359.09;10347945;28;20042;-75
2023/03/28 23:22:39;;;;;;;7.25;5.70;;;;;;;19.30;45.67;97350.19;10348144;28;20509;-75
2023/03/28 23:27:58;;;;;;;6.65;5.55;;;;;;;19.29;45.68;97345.09;10360813;28;20056;-75
2023/03/28 23:33:18;;;;;;;7.32;5.75;;;;;;;19.27;45.47;97333.81;10374532;28;20473;-75
2023/03/28 23:38:39;;;;;;;6.88;5.53;;;;;;;19.26;45.58;97343.00;10360267;28;20475;-75
2023/03/28 23:44:01;;;;;;;8.45;5.80;;;;;;;19.26;45.45;97334.91;10361568;28;20042;-75
2023/03/28 23:49:20;;;;;;;5.45;4.85;;;;;;;19.24;45.43;97337.13;10387786;28;20096;-75
2023/03/28 23:54:40;;;;;;;6.18;5.05;;;;;;;19.22;45.49;97337.44;10373942;28;20042;-75
